createdAt,value
2022-08-07T00:01:12.578Z,23.30
2022-08-07T00:03:52.341Z,23.20
2022-08-07T00:06:29.556Z,23.30
2022-08-07T00:09:16.977Z,23.40
2022-08-07T00:11:55.510Z,23.40
2022-08-07T00:14:30.129Z,23.40
2022-08-07T00:17:02.476Z,23.30
2022-08-07T00:19:56.048Z,23.30
2022-08-07T00:22:34.535Z,23.30
2022-08-07T00:25:16.495Z,23.30
2022-08-07T00:27:53.404Z,23.50
2022-08-07T00:30:27.207Z,23.60
2022-08-07T00:32:57.135Z,23.60
2022-08-07T00:35:24.325Z,23.50
2022-08-07T00:37:51.810Z,23.30
2022-08-07T00:40:36.174Z,23.30
2022-08-07T00:43:09.853Z,23.30
2022-08-07T00:45:40.472Z,23.30
2022-08-07T00:48:11.118Z,23.10
2022-08-07T00:50:46.608Z,23.00
2022-08-07T00:53:20.294Z,23.00
2022-08-07T00:56:02.206Z,22.90
2022-08-07T00:58:31.004Z,22.90
2022-08-07T01:00:59.102Z,22.60
2022-08-07T01:03:55.738Z,22.60
2022-08-07T01:06:13.933Z,22.70
2022-08-07T01:08:53.053Z,22.80
2022-08-07T01:12:23.616Z,22.80
2022-08-07T01:14:08.953Z,22.80
2022-08-07T01:16:37.035Z,22.90
2022-08-07T01:19:14.758Z,23.00
2022-08-07T01:21:47.280Z,23.00
2022-08-07T01:24:21.247Z,22.70
2022-08-07T01:26:52.180Z,22.60
2022-08-07T01:29:22.098Z,22.40
2022-08-07T01:31:49.943Z,22.40
2022-08-07T01:34:24.077Z,22.40
2022-08-07T01:36:58.751Z,22.40
2022-08-07T01:39:40.847Z,22.20
2022-08-07T01:42:38.949Z,22.00
2022-08-07T01:45:04.263Z,22.10
2022-08-07T01:48:18.500Z,22.20
2022-08-07T01:50:28.644Z,22.40
2022-08-07T01:52:58.528Z,22.30
2022-08-07T01:55:34.499Z,22.40
2022-08-07T01:58:27.419Z,22.30
2022-08-07T02:01:10.373Z,22.30
2022-08-07T02:03:51.436Z,22.40
2022-08-07T02:06:31.442Z,22.40
2022-08-07T02:09:04.307Z,22.40
2022-08-07T02:12:03.459Z,22.40
2022-08-07T02:14:36.001Z,22.50
2022-08-07T02:17:08.462Z,22.60
2022-08-07T02:20:05.156Z,22.80
2022-08-07T02:22:26.197Z,22.50
2022-08-07T02:24:57.621Z,22.30
2022-08-07T02:27:27.498Z,22.50
2022-08-07T02:30:04.001Z,22.50
2022-08-07T02:32:42.652Z,22.50
2022-08-07T02:36:28.600Z,22.50
2022-08-07T02:38:16.906Z,22.60
2022-08-07T02:40:55.282Z,22.70
2022-08-07T02:43:23.336Z,22.70
2022-08-07T02:46:00.722Z,22.60
2022-08-07T02:48:30.809Z,22.40
2022-08-07T02:51:03.315Z,22.20
2022-08-07T02:53:38.824Z,22.20
2022-08-07T02:56:12.877Z,22.30
2022-08-07T02:58:47.225Z,22.40
2022-08-07T03:01:19.156Z,22.40
2022-08-07T03:04:07.630Z,22.50
2022-08-07T03:06:40.196Z,22.50
2022-08-07T03:09:11.171Z,22.30
2022-08-07T03:11:51.655Z,22.20
2022-08-07T03:14:22.546Z,22.10
2022-08-07T03:16:49.798Z,22.20
2022-08-07T03:19:20.077Z,22.20
2022-08-07T03:21:50.767Z,22.20
2022-08-07T03:24:26.838Z,21.90
2022-08-07T03:27:00.409Z,21.80
2022-08-07T03:29:37.772Z,21.80
2022-08-07T03:32:08.453Z,21.80
2022-08-07T03:34:47.487Z,22.00
2022-08-07T03:37:29.569Z,22.10
2022-08-07T03:40:15.610Z,22.10
2022-08-07T03:42:44.630Z,22.10
2022-08-07T03:45:12.449Z,22.10
2022-08-07T03:47:59.225Z,22.10
2022-08-07T03:50:28.525Z,22.10
2022-08-07T03:52:59.313Z,22.10
2022-08-07T03:55:53.361Z,22.20
2022-08-07T03:59:04.641Z,22.10
2022-08-07T04:01:07.503Z,22.00
2022-08-07T04:03:49.511Z,21.90
2022-08-07T04:06:36.303Z,21.90
2022-08-07T04:09:15.217Z,21.70
2022-08-07T04:12:28.231Z,21.70
2022-08-07T04:14:38.704Z,21.80
2022-08-07T04:17:20.376Z,21.90
2022-08-07T04:19:52.601Z,21.90
2022-08-07T04:22:27.423Z,22.00
2022-08-07T04:24:58.150Z,21.90
2022-08-07T04:27:26.555Z,21.90
2022-08-07T04:30:02.203Z,22.00
2022-08-07T04:32:34.350Z,21.90
2022-08-07T04:35:07.302Z,21.80
2022-08-07T04:38:00.831Z,21.90
2022-08-07T04:40:30.156Z,21.90
2022-08-07T04:43:01.311Z,21.80
2022-08-07T04:46:04.666Z,21.60
2022-08-07T04:48:45.799Z,21.60
2022-08-07T04:51:27.777Z,21.70
2022-08-07T04:54:22.661Z,21.90
2022-08-07T04:58:10.524Z,22.00
2022-08-07T05:00:17.443Z,22.00
2022-08-07T05:04:00.475Z,22.10
2022-08-07T05:06:51.631Z,22.10
2022-08-07T05:09:46.332Z,22.00
2022-08-07T05:12:27.254Z,21.80
2022-08-07T05:15:23.270Z,21.80
2022-08-07T05:17:57.344Z,21.70
2022-08-07T05:20:51.242Z,21.70
2022-08-07T05:23:48.106Z,21.70
2022-08-07T05:26:24.250Z,21.70
2022-08-07T05:28:58.027Z,21.70
2022-08-07T05:31:34.680Z,21.70
2022-08-07T05:34:05.554Z,21.80
2022-08-07T05:36:42.463Z,21.70
2022-08-07T05:40:12.763Z,21.80
2022-08-07T05:42:01.823Z,21.90
2022-08-07T05:44:33.908Z,22.00
2022-08-07T05:47:01.953Z,22.20
2022-08-07T05:49:50.455Z,22.30
2022-08-07T05:52:20.271Z,22.50
2022-08-07T05:54:55.975Z,22.60
2022-08-07T05:57:30.358Z,22.80
2022-08-07T06:00:02.289Z,22.90
2022-08-07T06:02:35.545Z,22.90
2022-08-07T06:05:15.917Z,23.10
2022-08-07T06:08:29.867Z,23.20
2022-08-07T06:10:31.552Z,23.30
2022-08-07T06:12:59.977Z,23.50
2022-08-07T06:15:39.292Z,23.50
2022-08-07T06:18:12.232Z,23.70
2022-08-07T06:20:50.291Z,24.00
2022-08-07T06:24:37.178Z,24.10
2022-08-07T06:26:17.999Z,24.30
2022-08-07T06:28:53.510Z,24.50
2022-08-07T06:31:24.317Z,24.70
2022-08-07T06:34:05.744Z,25.00
2022-08-07T06:36:35.128Z,25.20
2022-08-07T06:40:16.977Z,25.50
2022-08-07T06:42:03.531Z,25.90
2022-08-07T06:44:36.592Z,26.20
2022-08-07T06:47:12.329Z,26.10
2022-08-07T06:49:51.949Z,26.20
2022-08-07T06:52:31.597Z,25.80
2022-08-07T06:55:31.346Z,26.30
2022-08-07T06:58:10.647Z,26.30
2022-08-07T07:00:42.378Z,26.60
2022-08-07T07:03:13.638Z,26.60
2022-08-07T07:06:04.826Z,26.60
2022-08-07T07:08:33.026Z,26.60
2022-08-07T07:11:01.610Z,26.70
2022-08-07T07:13:58.695Z,26.80
2022-08-07T07:16:34.095Z,26.70
2022-08-07T07:19:56.513Z,26.60
2022-08-07T07:22:04.774Z,26.40
2022-08-07T07:24:43.056Z,26.10
2022-08-07T07:27:35.754Z,26.10
2022-08-07T07:30:32.436Z,26.00
2022-08-07T07:33:02.601Z,26.10
2022-08-07T07:35:33.646Z,26.10
2022-08-07T07:38:13.651Z,26.00
2022-08-07T07:40:42.619Z,25.90
2022-08-07T07:43:18.585Z,25.80
2022-08-07T07:46:38.064Z,25.70
2022-08-07T07:48:43.092Z,25.50
2022-08-07T07:51:15.471Z,25.30
2022-08-07T07:53:52.000Z,25.10
2022-08-07T07:56:30.104Z,24.80
2022-08-07T07:59:00.458Z,24.60
2022-08-07T08:02:04.868Z,24.50
2022-08-07T08:04:19.890Z,24.40
2022-08-07T08:06:54.097Z,24.30
2022-08-07T08:09:24.417Z,24.30
2022-08-07T08:12:01.854Z,24.10
2022-08-07T08:14:36.061Z,23.90
2022-08-07T08:17:55.262Z,23.70
2022-08-07T08:20:18.887Z,23.60
2022-08-07T08:23:08.356Z,23.40
2022-08-07T08:25:58.184Z,23.30
2022-08-07T08:28:38.091Z,23.20
2022-08-07T08:31:13.856Z,23.10
2022-08-07T08:33:49.667Z,23.10
2022-08-07T08:36:18.637Z,23.00
2022-08-07T08:38:56.324Z,23.00
2022-08-07T08:42:03.266Z,23.10
2022-08-07T08:44:48.842Z,23.00
2022-08-07T08:47:47.348Z,22.90
2022-08-07T08:50:35.312Z,22.80
2022-08-07T08:53:31.198Z,22.60
2022-08-07T08:56:03.129Z,22.60
2022-08-07T08:58:57.254Z,22.60
2022-08-07T09:01:58.536Z,22.60
2022-08-07T09:04:43.469Z,22.50
2022-08-07T09:07:46.343Z,22.40
